createdAt,value
2019-03-20T00:02:43.376Z,141.33
2019-03-20T00:05:47.304Z,125.80
2019-03-20T00:08:51.186Z,129.57
2019-03-20T00:11:55.108Z,139.97
2019-03-20T00:14:58.905Z,122.17
2019-03-20T00:18:02.796Z,134.47
2019-03-20T00:21:06.696Z,131.33
2019-03-20T00:24:10.570Z,127.00
2019-03-20T00:27:14.461Z,145.37
2019-03-20T00:30:19.163Z,132.60
2019-03-20T00:33:23.080Z,131.03
2019-03-20T00:36:26.930Z,127.80
2019-03-20T00:39:30.832Z,123.33
2019-03-20T00:42:35.596Z,111.83
2019-03-20T00:45:39.786Z,119.57
2019-03-20T00:48:43.625Z,126.53
2019-03-20T00:51:47.558Z,134.07
2019-03-20T00:54:51.400Z,116.53
2019-03-20T00:57:55.426Z,120.80
2019-03-20T01:00:59.261Z,120.20
2019-03-20T01:04:03.153Z,138.67
2019-03-20T01:07:07.042Z,134.20
2019-03-20T01:10:13.900Z,117.97
2019-03-20T01:13:17.799Z,117.83
2019-03-20T01:16:21.695Z,119.23
2019-03-20T01:19:25.639Z,124.57
2019-03-20T01:22:29.509Z,117.60
2019-03-20T01:25:35.171Z,113.57
2019-03-20T01:28:39.120Z,119.40
2019-03-20T01:31:43.004Z,121.53
2019-03-20T01:34:46.906Z,115.30
2019-03-20T01:37:50.790Z,109.00
2019-03-20T01:40:54.672Z,107.17
2019-03-20T01:43:58.572Z,102.20
2019-03-20T01:47:02.453Z,98.90
2019-03-20T01:50:06.957Z,92.43
2019-03-20T01:53:10.781Z,92.13
2019-03-20T01:56:14.911Z,99.07
2019-03-20T01:59:18.765Z,95.57
2019-03-20T02:02:23.239Z,100.50
2019-03-20T02:05:35.281Z,88.93
2019-03-20T02:08:32.671Z,99.13
2019-03-20T02:11:36.551Z,96.43
2019-03-20T02:14:40.465Z,104.60
2019-03-20T02:17:44.341Z,89.10
2019-03-20T02:20:48.330Z,89.13
2019-03-20T02:23:52.186Z,98.33
2019-03-20T02:26:56.085Z,88.30
2019-03-20T02:29:59.914Z,80.57
2019-03-20T02:33:03.806Z,78.97
2019-03-20T02:36:07.675Z,86.63
2019-03-20T02:39:11.582Z,86.33
2019-03-20T02:42:15.461Z,81.90
2019-03-20T02:45:19.345Z,81.07
2019-03-20T02:48:23.205Z,83.83
2019-03-20T02:51:27.116Z,83.80
2019-03-20T02:54:30.951Z,83.53
2019-03-20T02:57:34.851Z,76.37
2019-03-20T03:00:38.708Z,81.80
2019-03-20T03:03:42.592Z,84.93
2019-03-20T03:06:46.446Z,88.10
2019-03-20T03:09:50.340Z,80.40
2019-03-20T03:12:54.176Z,88.43
2019-03-20T03:15:58.082Z,84.90
2019-03-20T03:19:01.944Z,88.10
2019-03-20T03:22:05.838Z,90.17
2019-03-20T03:25:11.089Z,84.43
2019-03-20T03:28:14.985Z,78.27
2019-03-20T03:31:19.145Z,90.80
2019-03-20T03:34:23.041Z,78.80
2019-03-20T03:37:26.904Z,76.57
2019-03-20T03:40:30.791Z,75.20
2019-03-20T03:43:34.642Z,80.13
2019-03-20T03:46:38.542Z,84.70
2019-03-20T03:49:42.395Z,83.17
2019-03-20T03:52:46.295Z,81.30
2019-03-20T03:55:50.180Z,77.33
2019-03-20T03:58:54.081Z,67.63
2019-03-20T04:01:58.045Z,76.27
2019-03-20T04:05:02.059Z,74.70
2019-03-20T04:08:05.898Z,72.27
2019-03-20T04:11:09.787Z,68.03
2019-03-20T04:14:13.652Z,71.63
2019-03-20T04:17:23.985Z,67.50
2019-03-20T04:20:27.831Z,62.30
2019-03-20T04:23:31.713Z,73.50
2019-03-20T04:26:35.570Z,61.87
2019-03-20T04:29:39.447Z,76.00
2019-03-20T04:32:43.350Z,73.23
2019-03-20T04:35:47.237Z,70.70
2019-03-20T04:38:51.120Z,65.47
2019-03-20T04:41:55.006Z,69.23
2019-03-20T04:44:58.852Z,81.93
2019-03-20T04:48:02.752Z,83.70
2019-03-20T04:51:06.597Z,86.57
2019-03-20T04:54:10.491Z,77.77
2019-03-20T04:57:14.328Z,98.27
2019-03-20T05:00:23.322Z,87.87
2019-03-20T05:03:27.412Z,88.03
2019-03-20T05:06:31.339Z,83.60
2019-03-20T05:09:35.180Z,89.77
2019-03-20T05:12:39.081Z,88.47
2019-03-20T05:15:42.924Z,89.13
2019-03-20T05:18:46.881Z,100.43
2019-03-20T05:21:50.729Z,91.80
2019-03-20T05:24:54.664Z,95.60
2019-03-20T05:27:58.495Z,97.93
2019-03-20T05:31:02.386Z,116.77
2019-03-20T05:34:06.509Z,131.37
2019-03-20T05:37:11.351Z,123.00
2019-03-20T05:40:18.714Z,126.73
2019-03-20T05:43:22.619Z,95.03
2019-03-20T05:46:26.461Z,73.83
2019-03-20T05:49:30.394Z,80.93
2019-03-20T05:52:34.247Z,84.53
2019-03-20T05:55:38.202Z,73.70
2019-03-20T05:58:42.026Z,85.80
2019-03-20T06:01:45.927Z,75.83
2019-03-20T06:04:49.787Z,81.07
2019-03-20T06:07:53.701Z,80.40
2019-03-20T06:10:57.537Z,83.27
2019-03-20T06:14:01.458Z,88.67
2019-03-20T06:17:05.663Z,85.10
2019-03-20T06:20:11.472Z,88.17
2019-03-20T06:23:15.273Z,90.53
2019-03-20T06:26:19.178Z,91.93
2019-03-20T06:29:23.036Z,94.47
2019-03-20T06:32:26.941Z,88.73
2019-03-20T06:35:30.807Z,83.57
2019-03-20T06:38:34.689Z,84.47
2019-03-20T06:41:38.565Z,87.70
2019-03-20T06:44:42.471Z,102.13
2019-03-20T06:47:46.313Z,79.03
2019-03-20T06:50:50.205Z,90.63
2019-03-20T06:53:54.045Z,84.83
2019-03-20T06:56:57.949Z,79.70
2019-03-20T07:00:38.196Z,86.60
2019-03-20T07:03:50.706Z,81.80
2019-03-20T07:06:57.498Z,90.73
2019-03-20T07:10:06.851Z,87.70
2019-03-20T07:13:10.711Z,87.87
2019-03-20T07:16:14.605Z,79.07
2019-03-20T07:19:18.448Z,77.33
2019-03-20T07:22:22.344Z,79.40
2019-03-20T07:25:26.299Z,80.10
2019-03-20T07:28:30.199Z,91.50
2019-03-20T07:31:34.043Z,103.20
2019-03-20T07:34:41.026Z,95.32
2019-03-20T07:37:55.816Z,100.73
2019-03-20T07:40:53.991Z,98.55
2019-03-20T07:43:57.821Z,101.50
2019-03-20T07:47:01.744Z,101.13
2019-03-20T07:50:07.353Z,97.03
2019-03-20T07:53:11.241Z,98.20
2019-03-20T07:56:15.096Z,103.73
2019-03-20T07:59:19.150Z,99.23
2019-03-20T08:02:23.207Z,106.20
2019-03-20T08:05:29.515Z,103.00
2019-03-20T08:08:32.630Z,93.47
2019-03-20T08:11:36.511Z,94.07
2019-03-20T08:14:40.471Z,92.67
2019-03-20T08:17:44.393Z,101.93
2019-03-20T08:20:48.267Z,104.27
2019-03-20T08:23:52.267Z,96.10
2019-03-20T08:26:56.098Z,90.90
2019-03-20T08:29:59.978Z,88.90
2019-03-20T08:33:03.829Z,88.43
2019-03-20T08:36:07.801Z,75.53
2019-03-20T08:39:11.648Z,84.73
2019-03-20T08:42:15.551Z,64.47
2019-03-20T08:45:19.579Z,76.57
2019-03-20T08:48:23.547Z,72.77
2019-03-20T08:51:27.381Z,67.20
2019-03-20T08:54:31.275Z,47.60
2019-03-20T08:57:35.124Z,56.70
2019-03-20T09:00:39.019Z,57.90
2019-03-20T09:03:42.868Z,52.47
2019-03-20T09:06:46.771Z,51.43
2019-03-20T09:09:51.449Z,55.10
2019-03-20T09:12:55.343Z,43.17
2019-03-20T09:15:59.153Z,50.60
2019-03-20T09:19:03.096Z,59.33
2019-03-20T09:22:06.936Z,59.73
2019-03-20T09:25:16.667Z,29.63
2019-03-20T09:28:20.533Z,26.37
2019-03-20T09:31:24.449Z,22.23
2019-03-20T09:34:28.277Z,31.63
2019-03-20T09:37:32.194Z,22.33
2019-03-20T09:40:36.004Z,25.43
2019-03-20T09:43:39.906Z,18.40
2019-03-20T09:46:43.733Z,32.77
2019-03-20T09:49:47.617Z,24.47
2019-03-20T09:52:51.463Z,23.87
2019-03-20T09:55:55.364Z,23.03
2019-03-20T09:58:59.192Z,21.07
2019-03-20T10:02:03.089Z,17.43
2019-03-20T10:05:07.756Z,26.17
2019-03-20T10:08:11.633Z,22.20
2019-03-20T10:11:15.530Z,20.87
2019-03-20T10:14:19.433Z,22.97
2019-03-20T10:17:23.996Z,23.20
2019-03-20T10:20:28.101Z,16.00
2019-03-20T10:23:31.949Z,23.40
2019-03-20T10:26:35.836Z,21.27
2019-03-20T10:29:39.682Z,23.20
2019-03-20T10:32:43.546Z,21.70
2019-03-20T10:35:50.557Z,21.20
2019-03-20T10:38:53.067Z,23.53
2019-03-20T10:41:56.913Z,24.57
2019-03-20T10:45:00.801Z,24.57
2019-03-20T10:48:04.629Z,21.77
2019-03-20T10:51:08.528Z,24.53
2019-03-20T10:54:12.376Z,24.80
2019-03-20T10:57:16.538Z,26.80
2019-03-20T11:00:27.360Z,24.00
2019-03-20T11:03:31.248Z,22.43
2019-03-20T11:06:35.114Z,21.83
2019-03-20T11:09:38.982Z,28.97
2019-03-20T11:12:42.814Z,24.83
2019-03-20T11:15:46.731Z,24.30
2019-03-20T11:18:50.562Z,22.73
2019-03-20T11:21:54.442Z,24.27
2019-03-20T11:24:58.286Z,22.23
2019-03-20T11:28:02.227Z,21.40
2019-03-20T11:31:06.850Z,19.70
2019-03-20T11:34:10.758Z,15.33
2019-03-20T11:37:14.834Z,17.97
2019-03-20T11:40:38.869Z,16.83
2019-03-20T11:43:42.745Z,20.60
2019-03-20T11:46:46.622Z,25.50
2019-03-20T11:49:51.714Z,26.37
2019-03-20T11:52:55.625Z,22.07
2019-03-20T11:55:59.461Z,21.03
2019-03-20T11:59:03.364Z,22.33
2019-03-20T12:02:07.225Z,25.10
2019-03-20T12:05:11.243Z,23.93
2019-03-20T12:08:15.063Z,23.63
2019-03-20T12:11:19.002Z,24.17
2019-03-20T12:14:22.844Z,32.50
2019-03-20T12:17:26.724Z,33.50
2019-03-20T12:20:30.584Z,36.73
2019-03-20T12:23:34.806Z,43.30
2019-03-20T12:26:38.665Z,35.03
2019-03-20T12:29:42.557Z,38.27
2019-03-20T12:32:46.400Z,36.63
2019-03-20T12:35:50.274Z,33.90
2019-03-20T12:38:54.129Z,32.00
2019-03-20T12:41:58.029Z,31.53
2019-03-20T12:45:01.867Z,31.00
2019-03-20T12:48:07.314Z,37.30
2019-03-20T12:51:11.255Z,35.50
2019-03-20T12:54:15.151Z,36.00
2019-03-20T12:57:18.996Z,35.37
2019-03-20T13:00:27.566Z,37.67
2019-03-20T13:03:31.625Z,39.73
2019-03-20T13:06:35.481Z,37.03
2019-03-20T13:09:39.400Z,32.60
2019-03-20T13:12:43.330Z,34.63
2019-03-20T13:15:47.250Z,37.23
2019-03-20T13:18:51.139Z,35.57
2019-03-20T13:21:55.162Z,33.43
2019-03-20T13:24:59.121Z,30.47
2019-03-20T13:28:03.032Z,36.17
2019-03-20T13:31:22.032Z,32.13
2019-03-20T13:34:25.948Z,34.20
2019-03-20T13:37:29.831Z,28.67
2019-03-20T13:40:33.711Z,33.97
2019-03-20T13:43:37.542Z,28.47
2019-03-20T13:46:41.463Z,29.70
2019-03-20T13:49:45.328Z,27.80
2019-03-20T13:52:49.227Z,32.20
2019-03-20T13:55:53.108Z,33.97
2019-03-20T13:58:56.982Z,31.33
2019-03-20T14:02:00.877Z,32.57
2019-03-20T14:05:06.383Z,32.73
2019-03-20T14:08:10.241Z,30.77
2019-03-20T14:11:14.324Z,29.43
2019-03-20T14:14:18.146Z,29.53
2019-03-20T14:17:22.026Z,28.43
2019-03-20T14:20:28.023Z,35.63
2019-03-20T14:23:31.926Z,31.50
2019-03-20T14:26:35.986Z,26.80
2019-03-20T14:29:39.877Z,26.17
2019-03-20T14:32:43.772Z,33.30
2019-03-20T14:35:47.590Z,29.50
2019-03-20T14:38:51.486Z,33.93
2019-03-20T14:41:55.346Z,29.33
2019-03-20T14:44:59.241Z,32.83
2019-03-20T14:48:03.098Z,28.87
2019-03-20T14:51:07.304Z,29.43
2019-03-20T14:54:11.309Z,28.67
2019-03-20T14:57:15.443Z,24.90
2019-03-20T15:00:23.914Z,28.53
2019-03-20T15:03:27.797Z,34.83
2019-03-20T15:06:31.695Z,23.70
2019-03-20T15:09:35.695Z,29.90
2019-03-20T15:12:39.680Z,24.67
2019-03-20T15:15:46.571Z,36.87
2019-03-20T15:18:50.501Z,32.93
2019-03-20T15:21:54.372Z,30.70
2019-03-20T15:24:58.205Z,30.50
2019-03-20T15:28:02.081Z,32.33
2019-03-20T15:31:05.962Z,25.33
2019-03-20T15:34:09.821Z,24.27
2019-03-20T15:37:13.750Z,32.27
2019-03-20T15:40:21.431Z,33.10
2019-03-20T15:43:25.340Z,30.37
2019-03-20T15:46:29.170Z,27.10
2019-03-20T15:49:33.069Z,35.20
2019-03-20T15:52:36.954Z,33.90
2019-03-20T15:55:43.744Z,31.30
2019-03-20T15:58:47.640Z,28.77
2019-03-20T16:01:51.588Z,25.67
2019-03-20T16:04:55.407Z,28.00
2019-03-20T16:07:59.332Z,23.77
2019-03-20T16:11:06.831Z,27.87
2019-03-20T16:14:08.793Z,33.87
2019-03-20T16:17:12.701Z,27.07
2019-03-20T16:20:16.986Z,34.10
2019-03-20T16:23:20.875Z,26.57
2019-03-20T16:26:24.721Z,30.97
2019-03-20T16:29:28.642Z,30.23
2019-03-20T16:32:32.542Z,33.80
2019-03-20T16:35:36.457Z,31.37
2019-03-20T16:38:40.345Z,30.30
2019-03-20T16:41:44.185Z,32.30
2019-03-20T16:44:48.088Z,32.80
2019-03-20T16:47:52.341Z,38.90
2019-03-20T16:50:56.220Z,44.47
2019-03-20T16:54:00.083Z,39.87
2019-03-20T16:57:03.995Z,39.20
2019-03-20T17:00:22.573Z,43.30
2019-03-20T17:03:26.485Z,46.77
2019-03-20T17:06:30.291Z,46.20
2019-03-20T17:09:34.176Z,54.53
2019-03-20T17:12:38.310Z,56.73
2019-03-20T17:15:44.300Z,60.07
2019-03-20T17:18:48.181Z,56.70
2019-03-20T17:21:52.080Z,59.70
2019-03-20T17:24:55.926Z,64.07
2019-03-20T17:27:59.815Z,65.57
2019-03-20T17:31:03.846Z,72.07
2019-03-20T17:34:07.862Z,69.60
2019-03-20T17:37:12.003Z,80.70
2019-03-20T17:40:23.401Z,89.10
2019-03-20T17:43:27.378Z,83.60
2019-03-20T17:46:31.274Z,97.97
2019-03-20T17:49:35.121Z,132.67
2019-03-20T17:52:39.023Z,144.97
2019-03-20T17:55:42.886Z,138.87
2019-03-20T17:58:46.781Z,142.97
2019-03-20T18:01:50.642Z,134.53
2019-03-20T18:04:54.597Z,122.20
2019-03-20T18:07:58.426Z,119.80
2019-03-20T18:11:02.438Z,136.37
2019-03-20T18:14:06.271Z,149.63
2019-03-20T18:17:10.331Z,155.43
2019-03-20T18:20:16.375Z,164.73
2019-03-20T18:23:20.280Z,154.47
2019-03-20T18:26:25.625Z,141.80
2019-03-20T18:29:29.650Z,144.10
2019-03-20T18:32:33.471Z,140.13
2019-03-20T18:35:37.601Z,137.60
2019-03-20T18:38:41.440Z,126.83
2019-03-20T18:41:45.438Z,134.90
2019-03-20T18:44:49.609Z,136.03
2019-03-20T18:47:53.828Z,138.70
2019-03-20T18:50:57.661Z,119.60
2019-03-20T18:54:04.805Z,125.43
2019-03-20T18:57:08.912Z,123.80
2019-03-20T19:00:21.785Z,113.17
2019-03-20T19:03:28.652Z,113.40
2019-03-20T19:06:32.752Z,111.27
2019-03-20T19:09:36.662Z,106.53
2019-03-20T19:12:40.844Z,97.10
2019-03-20T19:15:44.928Z,97.93
2019-03-20T19:18:48.877Z,101.37
2019-03-20T19:21:52.787Z,92.23
2019-03-20T19:24:56.865Z,82.10
2019-03-20T19:28:02.439Z,88.13
2019-03-20T19:31:06.533Z,82.20
2019-03-20T19:34:10.463Z,83.80
2019-03-20T19:37:14.556Z,80.57
2019-03-20T19:40:19.992Z,92.57
2019-03-20T19:43:24.018Z,102.57
2019-03-20T19:46:27.906Z,107.63
2019-03-20T19:49:31.932Z,120.40
2019-03-20T19:52:35.846Z,128.83
2019-03-20T19:55:39.853Z,117.70
2019-03-20T19:58:43.811Z,124.47
2019-03-20T20:01:47.788Z,127.07
2019-03-20T20:04:51.926Z,120.07
2019-03-20T20:07:56.010Z,115.50
2019-03-20T20:11:00.031Z,121.40
2019-03-20T20:14:04.013Z,120.07
2019-03-20T20:17:07.900Z,121.97
2019-03-20T20:20:20.790Z,119.07
2019-03-20T20:23:24.800Z,120.97
2019-03-20T20:26:28.705Z,119.60
2019-03-20T20:29:32.686Z,118.37
2019-03-20T20:32:36.634Z,118.37
2019-03-20T20:35:40.634Z,113.87
2019-03-20T20:38:44.604Z,117.70
2019-03-20T20:41:48.449Z,128.23
2019-03-20T20:44:52.475Z,140.60
2019-03-20T20:47:56.326Z,159.63
2019-03-20T20:51:00.262Z,156.57
2019-03-20T20:54:04.194Z,158.80
2019-03-20T20:57:08.157Z,154.63
2019-03-20T21:00:22.877Z,163.43
2019-03-20T21:03:26.784Z,175.50
2019-03-20T21:06:30.643Z,148.83
2019-03-20T21:09:34.524Z,135.70
2019-03-20T21:12:38.371Z,140.37
2019-03-20T21:15:46.674Z,119.10
2019-03-20T21:19:02.122Z,119.47
2019-03-20T21:22:33.403Z,121.63
2019-03-20T21:25:37.251Z,107.07
2019-03-20T21:29:03.789Z,106.97
2019-03-20T21:32:13.211Z,102.17
2019-03-20T21:35:28.447Z,98.23
2019-03-20T21:38:32.446Z,104.73
2019-03-20T21:41:58.891Z,109.20
2019-03-20T21:45:31.262Z,105.13
2019-03-20T21:48:36.868Z,114.43
2019-03-20T21:51:40.768Z,106.97
2019-03-20T21:54:53.400Z,99.77
2019-03-20T21:58:02.686Z,106.63
2019-03-20T22:01:24.447Z,110.20
2019-03-20T22:04:28.281Z,108.20
2019-03-20T22:07:32.172Z,96.10
2019-03-20T22:10:58.612Z,91.43
2019-03-20T22:14:05.443Z,81.53
2019-03-20T22:17:33.270Z,85.80
2019-03-20T22:21:07.179Z,84.70
2019-03-20T22:24:47.310Z,84.30
2019-03-20T22:28:05.801Z,89.77
2019-03-20T22:31:09.643Z,77.50
2019-03-20T22:34:35.708Z,88.30
2019-03-20T22:37:39.703Z,88.43
2019-03-20T22:41:06.136Z,92.53
2019-03-20T22:44:09.972Z,89.13
2019-03-20T22:47:34.732Z,91.23
2019-03-20T22:50:44.339Z,89.63
2019-03-20T22:54:12.021Z,91.90
2019-03-20T22:57:27.637Z,87.50
2019-03-20T23:00:33.020Z,90.63
2019-03-20T23:03:45.354Z,95.20
2019-03-20T23:06:49.264Z,85.43
2019-03-20T23:09:53.101Z,89.40
2019-03-20T23:12:57.012Z,83.07
2019-03-20T23:16:00.851Z,93.57
2019-03-20T23:19:04.861Z,96.10
2019-03-20T23:22:09.306Z,95.30
2019-03-20T23:25:13.560Z,85.17
2019-03-20T23:28:17.377Z,95.63
2019-03-20T23:31:21.240Z,86.77
2019-03-20T23:34:25.079Z,98.93
2019-03-20T23:37:29.006Z,84.57
2019-03-20T23:40:32.831Z,90.53
2019-03-20T23:43:36.741Z,93.47
2019-03-20T23:46:40.581Z,98.40
2019-03-20T23:49:44.502Z,85.47
2019-03-20T23:52:48.321Z,89.30
2019-03-20T23:55:52.231Z,87.33
2019-03-20T23:58:56.048Z,88.93
